Portada
METAR-TAF:

METAR-TAF

Aeroports :

Imphal, Índia

latitud: 24-45-36N, longitud: 93-53-48E, altitud: 774 m

Observació

L'informe es va fer fa 4 hores i 41 minuts, a les 12:04 UTC
Vent 6 kt del Oest/Nord-Oest
Temperatura 24°C
Humitat 74%
Pressió 1014 hPa
Visibilitat: 5000 m
Escasses núvols a una alçada de 1800 ft
calitja

METAR: VEIM 011204Z 30006KT 5000 HZ FEW018 24/19 Q1014 NOSIG

Hora: 22:15 (16:45 UTC)

Pronòstic

L'informe es va fer fa 5 hores i 45 minuts, a les 11:00 UTC
Pronòstic vàlid del 01 a les 12 UTC al 01 a les 21 UTC
Vent 3 kt del Oest
Visibilitat: 5000 m
Escasses núvols a una alçada de 1800 ft
Núvols disperses a una alçada de 10000 ft
calitja
Evolucionant progressivament
l' 01 a les 13 UTC al 01 a les 15 UTC
Vent kt del Nord
Visibilitat: 3000 m
boirina

TAF: VEIM 011100Z 0112/0121 27003KT 5000 HZ FEW018 SCT100 BECMG 0113/0115 00000KT 3000 BR

Observacions i pronòstics meteorològics de més de 4000 aeroports (METAR i TAF).

Les estacions disponibles són els punts grocs i vermells al mapa.

Posi el ratolí al punt desitjat per veure el nom de l'estació.

Feu clic per veure les observacions i els pronòstics meteorològics.

Per canviar el mapa: feu clic els botons verds amb una creu de color negre per apropar; al botó verd amb un guió per allunyar la imatge; o en les fletxes verdes per a mapes adjacents.


METAR-TAF: